sensor_id;sensor_type;location;lat;lon;timestamp;P1;durP1;ratioP1;P2;durP2;ratioP2
10452;SDS011;5274;51.992;8.518;2023-04-24T00:00:28;24.92;;;23.83;;
10452;SDS011;5274;51.992;8.518;2023-04-24T00:02:54;24.52;;;23.42;;
10452;SDS011;5274;51.992;8.518;2023-04-24T00:05:21;25.80;;;24.70;;
10452;SDS011;5274;51.992;8.518;2023-04-24T00:07:47;44.47;;;42.17;;
10452;SDS011;5274;51.992;8.518;2023-04-24T00:10:13;43.38;;;41.28;;
10452;SDS011;5274;51.992;8.518;2023-04-24T00:12:39;38.60;;;36.80;;
10452;SDS011;5274;51.992;8.518;2023-04-24T00:15:05;39.00;;;37.00;;
10452;SDS011;5274;51.992;8.518;2023-04-24T00:17:31;37.05;;;35.20;;
10452;SDS011;5274;51.992;8.518;2023-04-24T00:19:57;37.15;;;35.35;;
10452;SDS011;5274;51.992;8.518;2023-04-24T00:22:24;37.70;;;35.33;;
10452;SDS011;5274;51.992;8.518;2023-04-24T00:24:50;39.25;;;37.45;;
10452;SDS011;5274;51.992;8.518;2023-04-24T00:27:16;41.97;;;39.97;;
10452;SDS011;5274;51.992;8.518;2023-04-24T00:29:42;40.85;;;38.95;;
10452;SDS011;5274;51.992;8.518;2023-04-24T00:32:08;39.80;;;38.00;;
10452;SDS011;5274;51.992;8.518;2023-04-24T00:34:33;38.53;;;36.72;;
10452;SDS011;5274;51.992;8.518;2023-04-24T00:36:59;39.50;;;37.70;;
10452;SDS011;5274;51.992;8.518;2023-04-24T00:39:25;37.45;;;35.75;;
10452;SDS011;5274;51.992;8.518;2023-04-24T00:41:51;38.55;;;36.75;;
10452;SDS011;5274;51.992;8.518;2023-04-24T00:44:17;37.40;;;35.60;;
10452;SDS011;5274;51.992;8.518;2023-04-24T00:46:43;39.95;;;38.05;;
10452;SDS011;5274;51.992;8.518;2023-04-24T00:49:09;41.92;;;39.85;;
10452;SDS011;5274;51.992;8.518;2023-04-24T00:51:36;42.53;;;40.53;;
10452;SDS011;5274;51.992;8.518;2023-04-24T00:54:02;42.05;;;40.05;;
10452;SDS011;5274;51.992;8.518;2023-04-24T00:56:28;40.15;;;37.92;;
10452;SDS011;5274;51.992;8.518;2023-04-24T00:58:54;38.38;;;36.58;;
10452;SDS011;5274;51.992;8.518;2023-04-24T01:01:21;36.17;;;34.55;;
10452;SDS011;5274;51.992;8.518;2023-04-24T01:03:47;35.38;;;33.58;;
10452;SDS011;5274;51.992;8.518;2023-04-24T01:06:15;35.92;;;34.05;;
10452;SDS011;5274;51.992;8.518;2023-04-24T01:08:41;38.25;;;36.45;;
10452;SDS011;5274;51.992;8.518;2023-04-24T01:11:07;38.28;;;36.47;;
10452;SDS011;5274;51.992;8.518;2023-04-24T01:13:33;38.80;;;37.00;;
10452;SDS011;5274;51.992;8.518;2023-04-24T01:16:00;38.70;;;36.90;;
10452;SDS011;5274;51.992;8.518;2023-04-24T01:18:26;37.08;;;35.38;;
10452;SDS011;5274;51.992;8.518;2023-04-24T01:20:53;36.58;;;34.90;;
10452;SDS011;5274;51.992;8.518;2023-04-24T01:23:19;35.92;;;34.22;;
10452;SDS011;5274;51.992;8.518;2023-04-24T01:25:45;34.83;;;33.22;;
10452;SDS011;5274;51.992;8.518;2023-04-24T01:28:11;32.92;;;31.42;;
10452;SDS011;5274;51.992;8.518;2023-04-24T01:30:39;35.40;;;33.70;;
10452;SDS011;5274;51.992;8.518;2023-04-24T01:33:04;35.63;;;33.95;;
10452;SDS011;5274;51.992;8.518;2023-04-24T01:35:31;36.92;;;35.15;;
10452;SDS011;5274;51.992;8.518;2023-04-24T01:37:57;38.38;;;36.47;;
10452;SDS011;5274;51.992;8.518;2023-04-24T01:40:23;37.28;;;35.58;;
10452;SDS011;5274;51.992;8.518;2023-04-24T01:42:48;38.00;;;35.97;;
10452;SDS011;5274;51.992;8.518;2023-04-24T01:45:14;35.40;;;33.70;;
10452;SDS011;5274;51.992;8.518;2023-04-24T01:47:40;35.00;;;33.40;;
10452;SDS011;5274;51.992;8.518;2023-04-24T01:50:07;35.13;;;33.42;;
10452;SDS011;5274;51.992;8.518;2023-04-24T01:52:33;36.60;;;34.95;;
10452;SDS011;5274;51.992;8.518;2023-04-24T01:55:00;34.67;;;33.10;;
10452;SDS011;5274;51.992;8.518;2023-04-24T01:57:27;35.05;;;33.38;;
10452;SDS011;5274;51.992;8.518;2023-04-24T01:59:55;34.90;;;33.30;;
10452;SDS011;5274;51.992;8.518;2023-04-24T02:02:21;33.88;;;32.28;;
10452;SDS011;5274;51.992;8.518;2023-04-24T02:04:48;33.83;;;32.33;;
10452;SDS011;5274;51.992;8.518;2023-04-24T02:07:14;35.33;;;33.72;;
10452;SDS011;5274;51.992;8.518;2023-04-24T02:09:40;34.33;;;32.72;;
10452;SDS011;5274;51.992;8.518;2023-04-24T02:12:06;34.00;;;32.50;;
10452;SDS011;5274;51.992;8.518;2023-04-24T02:14:32;31.55;;;30.15;;
10452;SDS011;5274;51.992;8.518;2023-04-24T02:16:58;33.33;;;31.83;;
10452;SDS011;5274;51.992;8.518;2023-04-24T02:19:25;32.83;;;31.23;;
10452;SDS011;5274;51.992;8.518;2023-04-24T02:21:51;32.65;;;31.15;;
10452;SDS011;5274;51.992;8.518;2023-04-24T02:24:17;33.88;;;32.17;;
10452;SDS011;5274;51.992;8.518;2023-04-24T02:26:43;31.30;;;29.90;;
10452;SDS011;5274;51.992;8.518;2023-04-24T02:29:09;31.70;;;30.15;;
10452;SDS011;5274;51.992;8.518;2023-04-24T02:31:35;31.23;;;29.45;;
10452;SDS011;5274;51.992;8.518;2023-04-24T02:34:01;31.17;;;29.77;;
10452;SDS011;5274;51.992;8.518;2023-04-24T02:36:27;34.53;;;33.03;;
10452;SDS011;5274;51.992;8.518;2023-04-24T02:38:53;35.75;;;34.15;;
10452;SDS011;5274;51.992;8.518;2023-04-24T02:41:19;35.20;;;33.40;;
10452;SDS011;5274;51.992;8.518;2023-04-24T02:43:45;33.63;;;32.08;;
10452;SDS011;5274;51.992;8.518;2023-04-24T02:46:11;32.72;;;31.23;;
10452;SDS011;5274;51.992;8.518;2023-04-24T02:48:37;30.70;;;29.40;;
10452;SDS011;5274;51.992;8.518;2023-04-24T02:51:03;30.95;;;29.55;;
10452;SDS011;5274;51.992;8.518;2023-04-24T02:53:29;31.27;;;29.88;;
10452;SDS011;5274;51.992;8.518;2023-04-24T02:55:55;30.98;;;29.58;;
10452;SDS011;5274;51.992;8.518;2023-04-24T02:58:21;31.15;;;29.75;;
10452;SDS011;5274;51.992;8.518;2023-04-24T03:00:47;32.83;;;31.33;;
10452;SDS011;5274;51.992;8.518;2023-04-24T03:03:13;33.45;;;31.95;;
10452;SDS011;5274;51.992;8.518;2023-04-24T03:05:40;34.38;;;32.88;;
10452;SDS011;5274;51.992;8.518;2023-04-24T03:08:06;32.20;;;30.80;;
10452;SDS011;5274;51.992;8.518;2023-04-24T03:10:32;30.90;;;29.40;;
10452;SDS011;5274;51.992;8.518;2023-04-24T03:12:58;27.88;;;26.67;;
10452;SDS011;5274;51.992;8.518;2023-04-24T03:15:24;28.95;;;27.75;;
10452;SDS011;5274;51.992;8.518;2023-04-24T03:17:50;29.80;;;28.50;;
10452;SDS011;5274;51.992;8.518;2023-04-24T03:20:16;29.92;;;28.52;;
10452;SDS011;5274;51.992;8.518;2023-04-24T03:22:41;31.58;;;30.17;;
10452;SDS011;5274;51.992;8.518;2023-04-24T03:25:07;31.08;;;29.65;;
10452;SDS011;5274;51.992;8.518;2023-04-24T03:27:34;32.95;;;31.35;;
10452;SDS011;5274;51.992;8.518;2023-04-24T03:30:00;34.70;;;32.17;;
10452;SDS011;5274;51.992;8.518;2023-04-24T03:32:26;30.65;;;29.15;;
10452;SDS011;5274;51.992;8.518;2023-04-24T03:34:52;32.67;;;30.95;;
10452;SDS011;5274;51.992;8.518;2023-04-24T03:37:18;32.05;;;30.65;;
10452;SDS011;5274;51.992;8.518;2023-04-24T03:39:44;31.75;;;30.13;;
10452;SDS011;5274;51.992;8.518;2023-04-24T03:42:10;30.83;;;29.42;;
10452;SDS011;5274;51.992;8.518;2023-04-24T03:44:36;31.63;;;30.23;;
10452;SDS011;5274;51.992;8.518;2023-04-24T03:47:02;32.78;;;31.30;;
10452;SDS011;5274;51.992;8.518;2023-04-24T03:49:28;32.78;;;31.25;;
10452;SDS011;5274;51.992;8.518;2023-04-24T03:51:54;33.63;;;32.05;;
10452;SDS011;5274;51.992;8.518;2023-04-24T03:54:20;32.08;;;30.67;;
10452;SDS011;5274;51.992;8.518;2023-04-24T03:56:46;31.40;;;29.95;;
10452;SDS011;5274;51.992;8.518;2023-04-24T03:59:11;31.17;;;29.77;;
10452;SDS011;5274;51.992;8.518;2023-04-24T04:01:38;41.47;;;38.97;;
10452;SDS011;5274;51.992;8.518;2023-04-24T04:04:04;43.65;;;41.03;;
10452;SDS011;5274;51.992;8.518;2023-04-24T04:06:30;44.72;;;42.03;;
10452;SDS011;5274;51.992;8.518;2023-04-24T04:08:57;47.40;;;44.38;;
10452;SDS011;5274;51.992;8.518;2023-04-24T04:11:23;46.40;;;43.50;;
10452;SDS011;5274;51.992;8.518;2023-04-24T04:13:49;48.75;;;45.40;;
10452;SDS011;5274;51.992;8.518;2023-04-24T04:16:15;46.65;;;43.75;;
10452;SDS011;5274;51.992;8.518;2023-04-24T04:18:44;46.78;;;43.85;;
10452;SDS011;5274;51.992;8.518;2023-04-24T04:21:10;46.78;;;43.78;;
10452;SDS011;5274;51.992;8.518;2023-04-24T04:23:36;45.72;;;42.88;;
10452;SDS011;5274;51.992;8.518;2023-04-24T04:26:02;45.55;;;42.75;;
10452;SDS011;5274;51.992;8.518;2023-04-24T04:28:29;41.05;;;38.75;;
10452;SDS011;5274;51.992;8.518;2023-04-24T04:30:56;36.28;;;34.22;;
10452;SDS011;5274;51.992;8.518;2023-04-24T04:33:23;37.72;;;35.63;;
10452;SDS011;5274;51.992;8.518;2023-04-24T04:35:49;36.63;;;34.70;;
10452;SDS011;5274;51.992;8.518;2023-04-24T04:38:16;39.60;;;37.42;;
10452;SDS011;5274;51.992;8.518;2023-04-24T04:40:43;34.88;;;33.05;;
10452;SDS011;5274;51.992;8.518;2023-04-24T04:43:09;36.17;;;34.17;;
10452;SDS011;5274;51.992;8.518;2023-04-24T04:45:35;38.35;;;36.22;;
10452;SDS011;5274;51.992;8.518;2023-04-24T04:48:02;37.00;;;34.95;;
10452;SDS011;5274;51.992;8.518;2023-04-24T04:50:28;38.05;;;35.95;;
10452;SDS011;5274;51.992;8.518;2023-04-24T04:52:54;39.92;;;37.47;;
10452;SDS011;5274;51.992;8.518;2023-04-24T04:55:20;39.20;;;36.80;;
10452;SDS011;5274;51.992;8.518;2023-04-24T04:57:46;38.00;;;35.72;;
10452;SDS011;5274;51.992;8.518;2023-04-24T05:00:12;42.42;;;39.72;;
10452;SDS011;5274;51.992;8.518;2023-04-24T05:02:38;35.33;;;33.03;;
10452;SDS011;5274;51.992;8.518;2023-04-24T05:05:05;39.47;;;37.08;;
10452;SDS011;5274;51.992;8.518;2023-04-24T05:07:32;36.65;;;34.10;;
10452;SDS011;5274;51.992;8.518;2023-04-24T05:09:58;40.85;;;38.05;;
10452;SDS011;5274;51.992;8.518;2023-04-24T05:12:24;44.03;;;41.08;;
10452;SDS011;5274;51.992;8.518;2023-04-24T05:14:50;42.17;;;39.33;;
10452;SDS011;5274;51.992;8.518;2023-04-24T05:17:16;42.97;;;39.97;;
10452;SDS011;5274;51.992;8.518;2023-04-24T05:19:43;44.38;;;40.72;;
10452;SDS011;5274;51.992;8.518;2023-04-24T05:22:09;44.97;;;41.97;;
10452;SDS011;5274;51.992;8.518;2023-04-24T05:24:36;42.65;;;39.85;;
10452;SDS011;5274;51.992;8.518;2023-04-24T05:27:03;43.75;;;40.45;;
10452;SDS011;5274;51.992;8.518;2023-04-24T05:29:32;43.20;;;40.30;;
10452;SDS011;5274;51.992;8.518;2023-04-24T05:31:58;44.45;;;41.38;;
10452;SDS011;5274;51.992;8.518;2023-04-24T05:34:24;41.97;;;39.28;;
10452;SDS011;5274;51.992;8.518;2023-04-24T05:36:50;42.45;;;39.65;;
10452;SDS011;5274;51.992;8.518;2023-04-24T05:39:16;41.95;;;39.15;;
10452;SDS011;5274;51.992;8.518;2023-04-24T05:41:42;40.63;;;37.88;;
10452;SDS011;5274;51.992;8.518;2023-04-24T05:44:08;40.30;;;37.38;;
10452;SDS011;5274;51.992;8.518;2023-04-24T05:46:34;39.13;;;36.35;;
10452;SDS011;5274;51.992;8.518;2023-04-24T05:49:00;41.25;;;38.22;;
10452;SDS011;5274;51.992;8.518;2023-04-24T05:51:26;40.33;;;37.40;;
10452;SDS011;5274;51.992;8.518;2023-04-24T05:53:52;38.60;;;35.70;;
10452;SDS011;5274;51.992;8.518;2023-04-24T05:56:18;42.67;;;39.85;;
10452;SDS011;5274;51.992;8.518;2023-04-24T05:58:45;42.97;;;39.88;;
10452;SDS011;5274;51.992;8.518;2023-04-24T06:01:11;40.25;;;37.17;;
10452;SDS011;5274;51.992;8.518;2023-04-24T06:03:37;40.55;;;37.50;;
10452;SDS011;5274;51.992;8.518;2023-04-24T06:06:05;41.40;;;38.10;;
10452;SDS011;5274;51.992;8.518;2023-04-24T06:08:31;42.97;;;39.67;;
10452;SDS011;5274;51.992;8.518;2023-04-24T06:10:57;44.45;;;41.25;;
10452;SDS011;5274;51.992;8.518;2023-04-24T06:13:23;45.47;;;42.22;;
10452;SDS011;5274;51.992;8.518;2023-04-24T06:15:49;43.33;;;40.13;;
10452;SDS011;5274;51.992;8.518;2023-04-24T06:18:15;44.80;;;41.60;;
10452;SDS011;5274;51.992;8.518;2023-04-24T06:20:41;40.58;;;37.45;;
10452;SDS011;5274;51.992;8.518;2023-04-24T06:23:07;43.60;;;40.30;;
10452;SDS011;5274;51.992;8.518;2023-04-24T06:25:33;47.50;;;44.15;;
10452;SDS011;5274;51.992;8.518;2023-04-24T06:27:59;43.90;;;40.90;;
10452;SDS011;5274;51.992;8.518;2023-04-24T06:30:26;45.10;;;41.75;;
10452;SDS011;5274;51.992;8.518;2023-04-24T06:32:53;44.42;;;41.28;;
10452;SDS011;5274;51.992;8.518;2023-04-24T06:35:19;45.00;;;41.75;;
10452;SDS011;5274;51.992;8.518;2023-04-24T06:37:45;45.28;;;41.95;;
10452;SDS011;5274;51.992;8.518;2023-04-24T06:40:11;45.47;;;42.08;;
10452;SDS011;5274;51.992;8.518;2023-04-24T06:42:37;42.40;;;39.30;;
10452;SDS011;5274;51.992;8.518;2023-04-24T06:45:03;45.88;;;42.22;;
10452;SDS011;5274;51.992;8.518;2023-04-24T06:47:30;45.58;;;42.28;;
10452;SDS011;5274;51.992;8.518;2023-04-24T06:49:56;41.67;;;38.78;;
10452;SDS011;5274;51.992;8.518;2023-04-24T06:52:22;46.97;;;43.20;;
10452;SDS011;5274;51.992;8.518;2023-04-24T06:54:48;47.20;;;43.80;;
10452;SDS011;5274;51.992;8.518;2023-04-24T06:57:14;48.20;;;44.60;;
10452;SDS011;5274;51.992;8.518;2023-04-24T06:59:41;45.45;;;42.15;;
10452;SDS011;5274;51.992;8.518;2023-04-24T07:02:07;46.15;;;42.65;;
10452;SDS011;5274;51.992;8.518;2023-04-24T07:04:33;44.17;;;40.97;;
10452;SDS011;5274;51.992;8.518;2023-04-24T07:06:59;46.67;;;43.28;;
10452;SDS011;5274;51.992;8.518;2023-04-24T07:09:25;46.47;;;43.15;;
10452;SDS011;5274;51.992;8.518;2023-04-24T07:11:52;43.33;;;40.42;;
10452;SDS011;5274;51.992;8.518;2023-04-24T07:14:18;43.63;;;40.58;;
10452;SDS011;5274;51.992;8.518;2023-04-24T07:16:45;43.33;;;40.38;;
10452;SDS011;5274;51.992;8.518;2023-04-24T07:19:12;42.08;;;39.15;;
10452;SDS011;5274;51.992;8.518;2023-04-24T07:21:38;43.33;;;40.33;;
10452;SDS011;5274;51.992;8.518;2023-04-24T07:24:04;44.90;;;41.80;;
10452;SDS011;5274;51.992;8.518;2023-04-24T07:26:34;40.85;;;38.13;;
10452;SDS011;5274;51.992;8.518;2023-04-24T07:29:00;43.95;;;40.65;;
10452;SDS011;5274;51.992;8.518;2023-04-24T07:31:26;41.63;;;38.83;;
10452;SDS011;5274;51.992;8.518;2023-04-24T07:33:52;44.53;;;41.47;;
10452;SDS011;5274;51.992;8.518;2023-04-24T07:36:17;44.75;;;41.75;;
10452;SDS011;5274;51.992;8.518;2023-04-24T07:38:47;43.85;;;40.63;;
10452;SDS011;5274;51.992;8.518;2023-04-24T07:41:13;42.03;;;39.28;;
10452;SDS011;5274;51.992;8.518;2023-04-24T07:43:39;40.42;;;37.92;;
10452;SDS011;5274;51.992;8.518;2023-04-24T07:46:06;40.10;;;37.50;;
10452;SDS011;5274;51.992;8.518;2023-04-24T07:48:32;39.65;;;36.88;;
10452;SDS011;5274;51.992;8.518;2023-04-24T07:50:58;41.13;;;38.65;;
10452;SDS011;5274;51.992;8.518;2023-04-24T07:53:24;40.30;;;37.90;;
10452;SDS011;5274;51.992;8.518;2023-04-24T07:55:49;43.67;;;40.88;;
10452;SDS011;5274;51.992;8.518;2023-04-24T07:58:15;43.92;;;41.13;;
10452;SDS011;5274;51.992;8.518;2023-04-24T08:00:41;42.50;;;40.00;;
10452;SDS011;5274;51.992;8.518;2023-04-24T08:03:07;42.28;;;39.67;;
10452;SDS011;5274;51.992;8.518;2023-04-24T08:05:33;43.25;;;40.55;;
10452;SDS011;5274;51.992;8.518;2023-04-24T08:07:59;43.60;;;40.90;;
10452;SDS011;5274;51.992;8.518;2023-04-24T08:10:25;43.30;;;40.58;;
10452;SDS011;5274;51.992;8.518;2023-04-24T08:12:51;42.53;;;40.03;;
10452;SDS011;5274;51.992;8.518;2023-04-24T08:15:17;43.38;;;40.88;;
10452;SDS011;5274;51.992;8.518;2023-04-24T08:17:43;39.53;;;37.00;;
10452;SDS011;5274;51.992;8.518;2023-04-24T08:20:10;41.63;;;39.22;;
10452;SDS011;5274;51.992;8.518;2023-04-24T08:22:40;42.53;;;39.67;;
10452;SDS011;5274;51.992;8.518;2023-04-24T08:25:06;42.92;;;40.22;;
10452;SDS011;5274;51.992;8.518;2023-04-24T08:27:32;43.97;;;41.42;;
10452;SDS011;5274;51.992;8.518;2023-04-24T08:29:58;42.90;;;40.05;;
10452;SDS011;5274;51.992;8.518;2023-04-24T08:32:25;42.40;;;39.90;;
10452;SDS011;5274;51.992;8.518;2023-04-24T08:34:53;41.38;;;39.03;;
10452;SDS011;5274;51.992;8.518;2023-04-24T08:37:21;41.30;;;39.00;;
10452;SDS011;5274;51.992;8.518;2023-04-24T08:39:47;42.33;;;39.65;;
10452;SDS011;5274;51.992;8.518;2023-04-24T08:42:13;41.47;;;39.08;;
10452;SDS011;5274;51.992;8.518;2023-04-24T08:44:40;39.30;;;37.10;;
10452;SDS011;5274;51.992;8.518;2023-04-24T08:47:07;39.30;;;37.00;;
10452;SDS011;5274;51.992;8.518;2023-04-24T08:49:33;38.88;;;36.78;;
10452;SDS011;5274;51.992;8.518;2023-04-24T08:52:01;40.53;;;38.22;;
10452;SDS011;5274;51.992;8.518;2023-04-24T08:54:27;41.70;;;39.20;;
10452;SDS011;5274;51.992;8.518;2023-04-24T08:56:54;41.03;;;38.75;;
10452;SDS011;5274;51.992;8.518;2023-04-24T08:59:25;41.83;;;39.53;;
10452;SDS011;5274;51.992;8.518;2023-04-24T09:01:51;40.55;;;38.15;;
10452;SDS011;5274;51.992;8.518;2023-04-24T09:04:18;41.42;;;39.03;;
10452;SDS011;5274;51.992;8.518;2023-04-24T09:06:47;41.15;;;38.88;;
10452;SDS011;5274;51.992;8.518;2023-04-24T09:09:13;41.92;;;39.63;;
10452;SDS011;5274;51.992;8.518;2023-04-24T09:11:41;40.45;;;38.08;;
10452;SDS011;5274;51.992;8.518;2023-04-24T09:14:07;40.95;;;38.38;;
10452;SDS011;5274;51.992;8.518;2023-04-24T09:16:35;39.28;;;36.85;;
10452;SDS011;5274;51.992;8.518;2023-04-24T09:19:01;37.30;;;35.20;;
10452;SDS011;5274;51.992;8.518;2023-04-24T09:21:32;38.67;;;36.58;;
10452;SDS011;5274;51.992;8.518;2023-04-24T09:24:06;39.47;;;37.13;;
10452;SDS011;5274;51.992;8.518;2023-04-24T09:26:33;39.10;;;36.90;;
10452;SDS011;5274;51.992;8.518;2023-04-24T09:29:00;38.58;;;36.47;;
10452;SDS011;5274;51.992;8.518;2023-04-24T09:31:27;37.00;;;34.80;;
10452;SDS011;5274;51.992;8.518;2023-04-24T09:33:54;37.45;;;35.00;;
10452;SDS011;5274;51.992;8.518;2023-04-24T09:36:27;37.35;;;35.20;;
10452;SDS011;5274;51.992;8.518;2023-04-24T09:38:57;32.28;;;30.58;;
10452;SDS011;5274;51.992;8.518;2023-04-24T09:41:23;34.38;;;32.58;;
10452;SDS011;5274;51.992;8.518;2023-04-24T09:43:49;35.30;;;33.20;;
10452;SDS011;5274;51.992;8.518;2023-04-24T09:46:15;33.33;;;31.52;;
10452;SDS011;5274;51.992;8.518;2023-04-24T09:48:43;31.55;;;29.67;;
10452;SDS011;5274;51.992;8.518;2023-04-24T09:51:10;35.60;;;33.60;;
10452;SDS011;5274;51.992;8.518;2023-04-24T09:53:36;37.38;;;35.22;;
10452;SDS011;5274;51.992;8.518;2023-04-24T09:56:07;37.83;;;35.72;;
10452;SDS011;5274;51.992;8.518;2023-04-24T09:58:34;38.22;;;36.13;;
10452;SDS011;5274;51.992;8.518;2023-04-24T10:01:01;34.75;;;32.95;;
10452;SDS011;5274;51.992;8.518;2023-04-24T10:03:29;36.65;;;34.65;;
10452;SDS011;5274;51.992;8.518;2023-04-24T10:05:58;37.13;;;35.15;;
10452;SDS011;5274;51.992;8.518;2023-04-24T10:08:24;37.83;;;35.70;;
10452;SDS011;5274;51.992;8.518;2023-04-24T10:10:50;36.60;;;34.60;;
10452;SDS011;5274;51.992;8.518;2023-04-24T10:13:16;40.00;;;37.50;;
10452;SDS011;5274;51.992;8.518;2023-04-24T10:15:42;37.08;;;35.08;;
10452;SDS011;5274;51.992;8.518;2023-04-24T10:18:08;35.42;;;33.50;;
10452;SDS011;5274;51.992;8.518;2023-04-24T10:20:36;39.05;;;36.95;;
10452;SDS011;5274;51.992;8.518;2023-04-24T10:23:03;36.20;;;34.30;;
10452;SDS011;5274;51.992;8.518;2023-04-24T10:25:29;35.17;;;33.28;;
10452;SDS011;5274;51.992;8.518;2023-04-24T10:27:56;34.47;;;32.65;;
10452;SDS011;5274;51.992;8.518;2023-04-24T10:30:24;33.00;;;31.20;;
10452;SDS011;5274;51.992;8.518;2023-04-24T10:32:50;33.70;;;31.90;;
10452;SDS011;5274;51.992;8.518;2023-04-24T10:35:16;35.97;;;34.08;;
10452;SDS011;5274;51.992;8.518;2023-04-24T10:37:44;34.40;;;32.53;;
10452;SDS011;5274;51.992;8.518;2023-04-24T10:40:11;32.65;;;30.95;;
10452;SDS011;5274;51.992;8.518;2023-04-24T10:42:40;34.63;;;32.63;;
10452;SDS011;5274;51.992;8.518;2023-04-24T10:45:16;35.47;;;33.38;;
10452;SDS011;5274;51.992;8.518;2023-04-24T10:47:43;31.75;;;29.88;;
10452;SDS011;5274;51.992;8.518;2023-04-24T10:50:16;35.53;;;33.53;;
10452;SDS011;5274;51.992;8.518;2023-04-24T10:52:48;34.78;;;32.78;;
10452;SDS011;5274;51.992;8.518;2023-04-24T10:58:04;32.33;;;30.52;;
10452;SDS011;5274;51.992;8.518;2023-04-24T11:00:30;34.20;;;32.30;;
10452;SDS011;5274;51.992;8.518;2023-04-24T11:02:56;31.42;;;29.73;;
10452;SDS011;5274;51.992;8.518;2023-04-24T11:05:24;31.55;;;29.75;;
10452;SDS011;5274;51.992;8.518;2023-04-24T11:10:43;29.90;;;28.30;;
10452;SDS011;5274;51.992;8.518;2023-04-24T11:13:09;29.83;;;28.33;;
10452;SDS011;5274;51.992;8.518;2023-04-24T11:15:35;28.63;;;27.13;;
10452;SDS011;5274;51.992;8.518;2023-04-24T11:18:01;26.75;;;25.42;;
10452;SDS011;5274;51.992;8.518;2023-04-24T11:20:27;27.77;;;26.35;;
10452;SDS011;5274;51.992;8.518;2023-04-24T11:22:54;26.63;;;25.23;;
10452;SDS011;5274;51.992;8.518;2023-04-24T11:25:22;25.88;;;24.45;;
10452;SDS011;5274;51.992;8.518;2023-04-24T11:27:48;24.10;;;22.90;;
10452;SDS011;5274;51.992;8.518;2023-04-24T11:30:18;26.70;;;25.13;;
10452;SDS011;5274;51.992;8.518;2023-04-24T11:32:47;21.90;;;20.80;;
10452;SDS011;5274;51.992;8.518;2023-04-24T11:35:21;27.85;;;26.35;;
10452;SDS011;5274;51.992;8.518;2023-04-24T11:37:52;26.02;;;24.73;;
10452;SDS011;5274;51.992;8.518;2023-04-24T11:40:19;25.42;;;24.13;;
10452;SDS011;5274;51.992;8.518;2023-04-24T11:42:48;30.85;;;29.05;;
10452;SDS011;5274;51.992;8.518;2023-04-24T11:45:15;30.20;;;28.60;;
10452;SDS011;5274;51.992;8.518;2023-04-24T11:47:41;32.03;;;30.23;;
10452;SDS011;5274;51.992;8.518;2023-04-24T11:50:09;35.05;;;33.15;;
10452;SDS011;5274;51.992;8.518;2023-04-24T11:52:38;32.63;;;30.83;;
10452;SDS011;5274;51.992;8.518;2023-04-24T11:55:12;31.52;;;29.90;;
10452;SDS011;5274;51.992;8.518;2023-04-24T11:57:49;30.20;;;28.60;;
10452;SDS011;5274;51.992;8.518;2023-04-24T12:00:22;34.85;;;32.85;;
10452;SDS011;5274;51.992;8.518;2023-04-24T12:02:49;31.30;;;29.60;;
10452;SDS011;5274;51.992;8.518;2023-04-24T12:05:19;31.42;;;29.73;;
10452;SDS011;5274;51.992;8.518;2023-04-24T12:07:45;29.45;;;27.85;;
10452;SDS011;5274;51.992;8.518;2023-04-24T12:10:11;30.75;;;28.70;;
10452;SDS011;5274;51.992;8.518;2023-04-24T12:12:38;26.85;;;25.33;;
10452;SDS011;5274;51.992;8.518;2023-04-24T12:15:07;28.38;;;26.77;;
10452;SDS011;5274;51.992;8.518;2023-04-24T12:17:34;29.30;;;27.70;;
10452;SDS011;5274;51.992;8.518;2023-04-24T12:20:03;31.25;;;29.38;;
10452;SDS011;5274;51.992;8.518;2023-04-24T12:25:11;34.13;;;31.85;;
10452;SDS011;5274;51.992;8.518;2023-04-24T12:27:37;34.20;;;32.10;;
10452;SDS011;5274;51.992;8.518;2023-04-24T12:30:04;31.27;;;29.48;;
10452;SDS011;5274;51.992;8.518;2023-04-24T12:32:31;32.47;;;30.63;;
10452;SDS011;5274;51.992;8.518;2023-04-24T12:34:57;31.33;;;29.52;;
10452;SDS011;5274;51.992;8.518;2023-04-24T12:37:24;30.45;;;28.75;;
10452;SDS011;5274;51.992;8.518;2023-04-24T12:40:00;29.48;;;27.75;;
10452;SDS011;5274;51.992;8.518;2023-04-24T12:42:27;33.75;;;31.38;;
10452;SDS011;5274;51.992;8.518;2023-04-24T12:45:01;30.70;;;28.80;;
10452;SDS011;5274;51.992;8.518;2023-04-24T12:47:27;31.27;;;29.38;;
10452;SDS011;5274;51.992;8.518;2023-04-24T12:49:53;32.97;;;30.98;;
10452;SDS011;5274;51.992;8.518;2023-04-24T12:52:20;28.73;;;27.10;;
10452;SDS011;5274;51.992;8.518;2023-04-24T12:54:46;31.80;;;29.77;;
10452;SDS011;5274;51.992;8.518;2023-04-24T12:57:12;31.15;;;29.30;;
10452;SDS011;5274;51.992;8.518;2023-04-24T12:59:38;28.08;;;26.48;;
10452;SDS011;5274;51.992;8.518;2023-04-24T13:02:05;27.25;;;25.70;;
10452;SDS011;5274;51.992;8.518;2023-04-24T13:04:32;29.83;;;27.95;;
10452;SDS011;5274;51.992;8.518;2023-04-24T13:06:58;30.02;;;28.33;;
10452;SDS011;5274;51.992;8.518;2023-04-24T13:09:23;31.30;;;29.17;;
10452;SDS011;5274;51.992;8.518;2023-04-24T13:11:49;28.45;;;26.55;;
10452;SDS011;5274;51.992;8.518;2023-04-24T13:14:15;26.98;;;25.40;;
10452;SDS011;5274;51.992;8.518;2023-04-24T13:16:41;26.95;;;25.45;;
10452;SDS011;5274;51.992;8.518;2023-04-24T13:19:07;26.23;;;24.70;;
10452;SDS011;5274;51.992;8.518;2023-04-24T13:21:33;27.27;;;25.42;;
10452;SDS011;5274;51.992;8.518;2023-04-24T13:23:59;29.20;;;27.27;;
10452;SDS011;5274;51.992;8.518;2023-04-24T13:26:25;23.58;;;21.98;;
10452;SDS011;5274;51.992;8.518;2023-04-24T13:28:51;27.58;;;25.83;;
10452;SDS011;5274;51.992;8.518;2023-04-24T13:31:17;26.25;;;24.55;;
10452;SDS011;5274;51.992;8.518;2023-04-24T13:33:43;27.35;;;25.48;;
10452;SDS011;5274;51.992;8.518;2023-04-24T13:36:09;28.52;;;26.75;;
10452;SDS011;5274;51.992;8.518;2023-04-24T13:38:35;28.42;;;26.75;;
10452;SDS011;5274;51.992;8.518;2023-04-24T13:41:01;27.25;;;25.25;;
10452;SDS011;5274;51.992;8.518;2023-04-24T13:43:27;28.00;;;26.20;;
10452;SDS011;5274;51.992;8.518;2023-04-24T13:45:53;32.60;;;30.52;;
10452;SDS011;5274;51.992;8.518;2023-04-24T13:48:19;31.65;;;29.52;;
10452;SDS011;5274;51.992;8.518;2023-04-24T13:50:45;35.85;;;33.20;;
10452;SDS011;5274;51.992;8.518;2023-04-24T13:53:13;33.92;;;31.83;;
10452;SDS011;5274;51.992;8.518;2023-04-24T13:55:39;36.65;;;34.00;;
10452;SDS011;5274;51.992;8.518;2023-04-24T13:58:05;33.05;;;30.95;;
10452;SDS011;5274;51.992;8.518;2023-04-24T14:00:31;31.30;;;28.92;;
10452;SDS011;5274;51.992;8.518;2023-04-24T14:02:57;34.50;;;32.05;;
10452;SDS011;5274;51.992;8.518;2023-04-24T14:05:23;35.30;;;32.88;;
10452;SDS011;5274;51.992;8.518;2023-04-24T14:07:50;31.10;;;28.80;;
10452;SDS011;5274;51.992;8.518;2023-04-24T14:10:16;31.48;;;29.10;;
10452;SDS011;5274;51.992;8.518;2023-04-24T14:12:42;32.78;;;30.30;;
10452;SDS011;5274;51.992;8.518;2023-04-24T14:15:08;35.35;;;32.72;;
10452;SDS011;5274;51.992;8.518;2023-04-24T14:17:34;32.97;;;30.58;;
10452;SDS011;5274;51.992;8.518;2023-04-24T14:20:01;35.95;;;33.55;;
10452;SDS011;5274;51.992;8.518;2023-04-24T14:22:28;34.63;;;32.17;;
10452;SDS011;5274;51.992;8.518;2023-04-24T14:24:55;36.42;;;33.10;;
10452;SDS011;5274;51.992;8.518;2023-04-24T14:27:20;33.95;;;31.75;;
10452;SDS011;5274;51.992;8.518;2023-04-24T14:29:46;37.08;;;34.38;;
10452;SDS011;5274;51.992;8.518;2023-04-24T14:32:12;37.15;;;34.60;;
10452;SDS011;5274;51.992;8.518;2023-04-24T14:34:40;39.65;;;36.92;;
10452;SDS011;5274;51.992;8.518;2023-04-24T14:37:06;39.03;;;36.15;;